sensor_id;sensor_type;location;lat;lon;timestamp;pressure;altitude;pressure_sealevel;temperature;humidity
49342;BME280;35210;41.606;-87.602;2023-02-11T00:01:24;100715.91;;;6.62;37.22
49342;BME280;35210;41.606;-87.602;2023-02-11T00:03:53;100715.91;;;6.62;37.50
49342;BME280;35210;41.606;-87.602;2023-02-11T00:06:22;100723.34;;;6.50;37.10
49342;BME280;35210;41.606;-87.602;2023-02-11T00:08:50;100724.16;;;6.52;37.08
49342;BME280;35210;41.606;-87.602;2023-02-11T00:11:23;100724.50;;;6.43;37.78
49342;BME280;35210;41.606;-87.602;2023-02-11T00:13:57;100733.94;;;6.25;38.44
49342;BME280;35210;41.606;-87.602;2023-02-11T00:16:27;100737.91;;;6.14;38.98
49342;BME280;35210;41.606;-87.602;2023-02-11T00:18:58;100729.59;;;6.03;39.18
49342;BME280;35210;41.606;-87.602;2023-02-11T00:21:27;100733.13;;;6.02;39.84
49342;BME280;35210;41.606;-87.602;2023-02-11T00:23:56;100735.97;;;5.96;39.70
49342;BME280;35210;41.606;-87.602;2023-02-11T00:26:26;100736.88;;;5.94;39.99
49342;BME280;35210;41.606;-87.602;2023-02-11T00:28:55;100745.09;;;5.85;40.22
49342;BME280;35210;41.606;-87.602;2023-02-11T00:31:29;100745.94;;;5.86;40.16
49342;BME280;35210;41.606;-87.602;2023-02-11T00:33:59;100750.44;;;5.82;40.71
49342;BME280;35210;41.606;-87.602;2023-02-11T00:36:28;100748.03;;;5.76;40.43
49342;BME280;35210;41.606;-87.602;2023-02-11T00:38:57;100751.72;;;5.71;41.11
49342;BME280;35210;41.606;-87.602;2023-02-11T00:41:26;100751.84;;;5.68;41.10
49342;BME280;35210;41.606;-87.602;2023-02-11T00:43:54;100745.63;;;5.70;41.46
49342;BME280;35210;41.606;-87.602;2023-02-11T00:46:22;100757.81;;;5.71;41.49
49342;BME280;35210;41.606;-87.602;2023-02-11T00:48:52;100757.81;;;5.71;41.62
49342;BME280;35210;41.606;-87.602;2023-02-11T00:51:22;100765.78;;;5.68;41.18
49342;BME280;35210;41.606;-87.602;2023-02-11T00:53:54;100764.19;;;5.64;41.97
49342;BME280;35210;41.606;-87.602;2023-02-11T00:56:30;100770.66;;;5.54;41.92
49342;BME280;35210;41.606;-87.602;2023-02-11T00:58:58;100770.88;;;5.48;42.32
49342;BME280;35210;41.606;-87.602;2023-02-11T01:01:27;100774.34;;;5.23;42.26
49342;BME280;35210;41.606;-87.602;2023-02-11T01:03:57;100777.72;;;5.27;43.12
49342;BME280;35210;41.606;-87.602;2023-02-11T01:06:26;100787.53;;;5.20;43.63
49342;BME280;35210;41.606;-87.602;2023-02-11T01:08:55;100784.53;;;5.06;42.95
49342;BME280;35210;41.606;-87.602;2023-02-11T01:11:26;100786.66;;;4.95;44.07
49342;BME280;35210;41.606;-87.602;2023-02-11T01:13:55;100793.91;;;4.87;44.50
49342;BME280;35210;41.606;-87.602;2023-02-11T01:16:23;100796.09;;;4.73;44.88
49342;BME280;35210;41.606;-87.602;2023-02-11T01:18:51;100790.34;;;4.61;46.00
49342;BME280;35210;41.606;-87.602;2023-02-11T01:21:21;100787.13;;;4.52;46.10
49342;BME280;35210;41.606;-87.602;2023-02-11T01:23:49;100786.81;;;4.35;46.43
49342;BME280;35210;41.606;-87.602;2023-02-11T01:26:18;100790.06;;;4.13;46.95
49342;BME280;35210;41.606;-87.602;2023-02-11T01:28:47;100795.56;;;4.04;48.18
49342;BME280;35210;41.606;-87.602;2023-02-11T01:31:15;100791.09;;;4.08;48.23
49342;BME280;35210;41.606;-87.602;2023-02-11T01:33:44;100792.78;;;4.10;47.84
49342;BME280;35210;41.606;-87.602;2023-02-11T01:36:13;100793.50;;;4.15;48.52
49342;BME280;35210;41.606;-87.602;2023-02-11T01:38:45;100804.09;;;4.11;48.42
49342;BME280;35210;41.606;-87.602;2023-02-11T01:41:15;100805.88;;;4.09;48.98
49342;BME280;35210;41.606;-87.602;2023-02-11T01:43:47;100805.06;;;4.07;49.02
49342;BME280;35210;41.606;-87.602;2023-02-11T01:46:35;100806.75;;;4.09;49.13
49342;BME280;35210;41.606;-87.602;2023-02-11T01:49:06;100807.59;;;4.10;48.46
49342;BME280;35210;41.606;-87.602;2023-02-11T01:51:37;100802.38;;;4.10;49.24
49342;BME280;35210;41.606;-87.602;2023-02-11T01:54:11;100806.75;;;4.09;49.67
49342;BME280;35210;41.606;-87.602;2023-02-11T01:57:01;100815.53;;;4.07;49.57
49342;BME280;35210;41.606;-87.602;2023-02-11T02:00:05;100824.25;;;4.06;49.69
49342;BME280;35210;41.606;-87.602;2023-02-11T02:02:42;100829.50;;;4.06;50.16
49342;BME280;35210;41.606;-87.602;2023-02-11T02:05:21;100829.50;;;4.06;49.70
49342;BME280;35210;41.606;-87.602;2023-02-11T02:07:57;100838.28;;;4.03;49.93
49342;BME280;35210;41.606;-87.602;2023-02-11T02:10:30;100841.75;;;4.04;49.59
49342;BME280;35210;41.606;-87.602;2023-02-11T02:13:00;100843.09;;;3.86;49.72
49342;BME280;35210;41.606;-87.602;2023-02-11T02:15:31;100841.38;;;3.85;50.18
49342;BME280;35210;41.606;-87.602;2023-02-11T02:18:10;100853.22;;;3.98;50.52
49342;BME280;35210;41.606;-87.602;2023-02-11T02:21:20;100852.41;;;3.96;50.00
49342;BME280;35210;41.606;-87.602;2023-02-11T02:24:08;100859.72;;;3.83;51.03
49342;BME280;35210;41.606;-87.602;2023-02-11T02:27:17;100858.00;;;3.82;50.82
49342;BME280;35210;41.606;-87.602;2023-02-11T02:33:00;100864.94;;;3.83;50.98
49342;BME280;35210;41.606;-87.602;2023-02-11T02:35:35;100862.50;;;3.77;51.54
49342;BME280;35210;41.606;-87.602;2023-02-11T02:38:12;100858.25;;;3.73;51.77
49342;BME280;35210;41.606;-87.602;2023-02-11T02:40:45;100862.09;;;3.60;52.07
49342;BME280;35210;41.606;-87.602;2023-02-11T02:43:16;100861.16;;;3.62;52.32
49342;BME280;35210;41.606;-87.602;2023-02-11T02:45:45;100862.09;;;3.60;52.34
49342;BME280;35210;41.606;-87.602;2023-02-11T02:48:27;100862.03;;;3.63;52.78
49342;BME280;35210;41.606;-87.602;2023-02-11T02:51:09;100866.31;;;3.66;52.45
49342;BME280;35210;41.606;-87.602;2023-02-11T02:53:54;100862.78;;;3.68;51.98
49342;BME280;35210;41.606;-87.602;2023-02-11T02:56:32;100857.59;;;3.67;52.81
49342;BME280;35210;41.606;-87.602;2023-02-11T02:59:17;100865.53;;;3.62;51.91
49342;BME280;35210;41.606;-87.602;2023-02-11T03:01:57;100868.19;;;3.60;52.72
49342;BME280;35210;41.606;-87.602;2023-02-11T03:04:36;100863.97;;;3.55;52.61
49342;BME280;35210;41.606;-87.602;2023-02-11T03:07:13;100874.50;;;3.52;52.41
49342;BME280;35210;41.606;-87.602;2023-02-11T03:09:50;100878.00;;;3.51;52.29
49342;BME280;35210;41.606;-87.602;2023-02-11T03:12:21;100881.41;;;3.54;51.97
49342;BME280;35210;41.606;-87.602;2023-02-11T03:14:51;100886.75;;;3.50;51.88
49342;BME280;35210;41.606;-87.602;2023-02-11T03:17:20;100885.03;;;3.49;51.92
49342;BME280;35210;41.606;-87.602;2023-02-11T03:19:52;100886.75;;;3.50;52.45
49342;BME280;35210;41.606;-87.602;2023-02-11T03:22:25;100894.56;;;3.50;52.89
49342;BME280;35210;41.606;-87.602;2023-02-11T03:24:55;100904.13;;;3.51;52.93
49342;BME280;35210;41.606;-87.602;2023-02-11T03:27:27;100901.59;;;3.48;53.34
49342;BME280;35210;41.606;-87.602;2023-02-11T03:30:03;100903.25;;;3.50;53.62
49342;BME280;35210;41.606;-87.602;2023-02-11T03:32:36;100900.69;;;3.49;53.25
49342;BME280;35210;41.606;-87.602;2023-02-11T03:35:12;100893.81;;;3.45;53.16
49342;BME280;35210;41.606;-87.602;2023-02-11T03:37:51;100888.56;;;3.46;53.49
49342;BME280;35210;41.606;-87.602;2023-02-11T03:40:26;100894.69;;;3.45;53.21
49342;BME280;35210;41.606;-87.602;2023-02-11T03:43:00;100902.56;;;3.44;52.95
49342;BME280;35210;41.606;-87.602;2023-02-11T03:45:30;100902.72;;;3.38;53.31
49342;BME280;35210;41.606;-87.602;2023-02-11T03:48:01;100897.47;;;3.38;53.51
49342;BME280;35210;41.606;-87.602;2023-02-11T03:50:35;100902.78;;;3.35;53.36
49342;BME280;35210;41.606;-87.602;2023-02-11T03:53:04;100902.84;;;3.32;54.28
49342;BME280;35210;41.606;-87.602;2023-02-11T03:55:36;100903.72;;;3.32;54.12
49342;BME280;35210;41.606;-87.602;2023-02-11T03:58:06;100911.53;;;3.32;54.16
49342;BME280;35210;41.606;-87.602;2023-02-11T04:00:37;100914.28;;;3.26;54.41
49342;BME280;35210;41.606;-87.602;2023-02-11T04:03:06;100904.69;;;3.28;53.51
49342;BME280;35210;41.606;-87.602;2023-02-11T04:05:37;100909.19;;;3.21;53.41
49342;BME280;35210;41.606;-87.602;2023-02-11T04:08:07;100903.09;;;3.21;53.41
49342;BME280;35210;41.606;-87.602;2023-02-11T04:10:35;100896.25;;;3.17;53.39
49342;BME280;35210;41.606;-87.602;2023-02-11T04:13:03;100895.56;;;3.09;53.03
49342;BME280;35210;41.606;-87.602;2023-02-11T04:15:31;100905.34;;;2.99;52.72
49342;BME280;35210;41.606;-87.602;2023-02-11T04:18:01;100910.66;;;2.96;53.16
49342;BME280;35210;41.606;-87.602;2023-02-11T04:20:30;100903.78;;;2.92;53.64
49342;BME280;35210;41.606;-87.602;2023-02-11T04:23:00;100911.69;;;2.89;53.52
49342;BME280;35210;41.606;-87.602;2023-02-11T04:25:28;100911.69;;;2.89;54.08
49342;BME280;35210;41.606;-87.602;2023-02-11T04:27:56;100902.94;;;2.91;53.76
49342;BME280;35210;41.606;-87.602;2023-02-11T04:30:24;100904.69;;;2.91;53.59
49342;BME280;35210;41.606;-87.602;2023-02-11T04:32:52;100895.13;;;2.90;53.65
49342;BME280;35210;41.606;-87.602;2023-02-11T04:35:21;100890.06;;;2.84;53.30
49342;BME280;35210;41.606;-87.602;2023-02-11T04:37:50;100887.44;;;2.84;53.41
49342;BME280;35210;41.606;-87.602;2023-02-11T04:40:21;100889.31;;;2.79;53.17
49342;BME280;35210;41.606;-87.602;2023-02-11T04:42:49;100894.63;;;2.74;52.87
49342;BME280;35210;41.606;-87.602;2023-02-11T04:45:17;100900.69;;;2.75;52.98
49342;BME280;35210;41.606;-87.602;2023-02-11T04:47:46;100892.09;;;2.70;53.36
49342;BME280;35210;41.606;-87.602;2023-02-11T04:50:15;100897.34;;;2.68;53.20
49342;BME280;35210;41.606;-87.602;2023-02-11T04:52:43;100893.97;;;2.64;53.91
49342;BME280;35210;41.606;-87.602;2023-02-11T04:55:11;100893.06;;;2.66;53.67
49342;BME280;35210;41.606;-87.602;2023-02-11T04:57:41;100899.16;;;2.64;53.52
49342;BME280;35210;41.606;-87.602;2023-02-11T05:00:11;100904.53;;;2.57;53.85
49342;BME280;35210;41.606;-87.602;2023-02-11T05:02:40;100897.59;;;2.57;53.87
49342;BME280;35210;41.606;-87.602;2023-02-11T05:05:08;100894.22;;;2.52;54.07
49342;BME280;35210;41.606;-87.602;2023-02-11T05:07:36;100901.13;;;2.55;53.96
49342;BME280;35210;41.606;-87.602;2023-02-11T05:10:05;100891.56;;;2.54;53.43
49342;BME280;35210;41.606;-87.602;2023-02-11T05:12:33;100887.28;;;2.51;53.01
49342;BME280;35210;41.606;-87.602;2023-02-11T05:15:04;100887.28;;;2.51;53.10
49342;BME280;35210;41.606;-87.602;2023-02-11T05:17:32;100889.94;;;2.48;53.57
49342;BME280;35210;41.606;-87.602;2023-02-11T05:20:01;100888.22;;;2.47;53.78
49342;BME280;35210;41.606;-87.602;2023-02-11T05:22:29;100889.19;;;2.43;53.70
49342;BME280;35210;41.606;-87.602;2023-02-11T05:24:57;100892.75;;;2.39;53.88
49342;BME280;35210;41.606;-87.602;2023-02-11T05:27:26;100882.31;;;2.39;53.08
49342;BME280;35210;41.606;-87.602;2023-02-11T05:29:55;100888.47;;;2.35;53.94
49342;BME280;35210;41.606;-87.602;2023-02-11T05:32:24;100880.78;;;2.29;53.81
49342;BME280;35210;41.606;-87.602;2023-02-11T05:34:54;100891.31;;;2.23;54.01
49342;BME280;35210;41.606;-87.602;2023-02-11T05:37:22;100883.50;;;2.23;53.93
49342;BME280;35210;41.606;-87.602;2023-02-11T05:39:51;100892.25;;;2.22;53.88
49342;BME280;35210;41.606;-87.602;2023-02-11T05:42:19;100888.72;;;2.23;53.94
49342;BME280;35210;41.606;-87.602;2023-02-11T05:44:48;100894.00;;;2.21;54.23
49342;BME280;35210;41.606;-87.602;2023-02-11T05:47:16;100888.88;;;2.17;53.99
49342;BME280;35210;41.606;-87.602;2023-02-11T05:49:47;100889.75;;;2.16;53.90
49342;BME280;35210;41.606;-87.602;2023-02-11T05:52:15;100887.19;;;2.14;54.49
49342;BME280;35210;41.606;-87.602;2023-02-11T05:54:44;100886.31;;;2.14;54.82
49342;BME280;35210;41.606;-87.602;2023-02-11T05:57:12;100887.28;;;2.10;54.56
49342;BME280;35210;41.606;-87.602;2023-02-11T05:59:41;100888.22;;;2.06;54.85
49342;BME280;35210;41.606;-87.602;2023-02-11T06:02:10;100883.84;;;2.08;54.37
49342;BME280;35210;41.606;-87.602;2023-02-11T06:04:39;100886.50;;;2.05;54.28
49342;BME280;35210;41.606;-87.602;2023-02-11T06:07:09;100887.44;;;2.01;53.89
49342;BME280;35210;41.606;-87.602;2023-02-11T06:09:38;100886.59;;;2.00;54.26
49342;BME280;35210;41.606;-87.602;2023-02-11T06:12:07;100883.94;;;2.02;54.45
49342;BME280;35210;41.606;-87.602;2023-02-11T06:14:35;100894.44;;;1.98;55.24
49342;BME280;35210;41.606;-87.602;2023-02-11T06:17:03;100887.56;;;1.94;55.24
49342;BME280;35210;41.606;-87.602;2023-02-11T06:19:32;100885.00;;;1.91;55.34
49342;BME280;35210;41.606;-87.602;2023-02-11T06:22:00;100888.56;;;1.87;55.63
49342;BME280;35210;41.606;-87.602;2023-02-11T06:24:31;100894.66;;;1.86;54.88
49342;BME280;35210;41.606;-87.602;2023-02-11T06:26:59;100893.84;;;1.83;54.83
49342;BME280;35210;41.606;-87.602;2023-02-11T06:29:27;100900.84;;;1.79;54.80
49342;BME280;35210;41.606;-87.602;2023-02-11T06:31:56;100893.19;;;1.72;55.10
49342;BME280;35210;41.606;-87.602;2023-02-11T06:34:24;100888.00;;;1.70;55.63
49342;BME280;35210;41.606;-87.602;2023-02-11T06:36:52;100888.88;;;1.69;55.48
49342;BME280;35210;41.606;-87.602;2023-02-11T06:39:20;100889.03;;;1.61;56.05
49342;BME280;35210;41.606;-87.602;2023-02-11T06:41:50;100882.13;;;1.59;56.11
49342;BME280;35210;41.606;-87.602;2023-02-11T06:44:18;100878.69;;;1.57;56.69
49342;BME280;35210;41.606;-87.602;2023-02-11T06:46:46;100889.03;;;1.60;55.96
49342;BME280;35210;41.606;-87.602;2023-02-11T06:49:14;100883.94;;;1.54;54.83
49342;BME280;35210;41.606;-87.602;2023-02-11T06:51:43;100885.00;;;1.44;55.32
49342;BME280;35210;41.606;-87.602;2023-02-11T06:54:11;100887.75;;;1.35;55.87
49342;BME280;35210;41.606;-87.602;2023-02-11T06:56:40;100890.41;;;1.31;56.95
49342;BME280;35210;41.606;-87.602;2023-02-11T06:59:13;100883.47;;;1.32;57.72
49342;BME280;35210;41.606;-87.602;2023-02-11T07:01:42;100890.34;;;1.36;57.19
49342;BME280;35210;41.606;-87.602;2023-02-11T07:04:11;100888.59;;;1.37;57.81
49342;BME280;35210;41.606;-87.602;2023-02-11T07:06:40;100879.06;;;1.36;57.45
49342;BME280;35210;41.606;-87.602;2023-02-11T07:09:08;100883.41;;;1.35;57.27
49342;BME280;35210;41.606;-87.602;2023-02-11T07:11:37;100887.84;;;1.30;57.46
49342;BME280;35210;41.606;-87.602;2023-02-11T07:14:06;100886.13;;;1.29;57.28
49342;BME280;35210;41.606;-87.602;2023-02-11T07:16:37;100886.13;;;1.29;57.25
49342;BME280;35210;41.606;-87.602;2023-02-11T07:19:06;100887.00;;;1.28;57.45
49342;BME280;35210;41.606;-87.602;2023-02-11T07:21:35;100887.91;;;1.25;57.54
49342;BME280;35210;41.606;-87.602;2023-02-11T07:24:06;100893.22;;;1.19;57.39
49342;BME280;35210;41.606;-87.602;2023-02-11T07:26:35;100893.22;;;1.19;57.30
49342;BME280;35210;41.606;-87.602;2023-02-11T07:29:04;100880.25;;;1.16;57.00
49342;BME280;35210;41.606;-87.602;2023-02-11T07:31:32;100885.41;;;1.18;57.19
49342;BME280;35210;41.606;-87.602;2023-02-11T07:34:02;100897.56;;;1.19;57.06
49342;BME280;35210;41.606;-87.602;2023-02-11T07:36:31;100892.34;;;1.19;56.74
49342;BME280;35210;41.606;-87.602;2023-02-11T07:39:00;100895.00;;;1.16;57.58
49342;BME280;35210;41.606;-87.602;2023-02-11T07:41:28;100888.06;;;1.15;56.94
49342;BME280;35210;41.606;-87.602;2023-02-11T07:43:57;100889.81;;;1.14;57.43
49342;BME280;35210;41.606;-87.602;2023-02-11T07:46:26;100885.47;;;1.15;57.16
49342;BME280;35210;41.606;-87.602;2023-02-11T07:48:55;100891.56;;;1.12;57.59
49342;BME280;35210;41.606;-87.602;2023-02-11T07:51:25;100887.25;;;1.11;57.37
49342;BME280;35210;41.606;-87.602;2023-02-11T07:53:54;100883.78;;;1.12;57.39
49342;BME280;35210;41.606;-87.602;2023-02-11T07:56:23;100887.25;;;1.11;57.45
49342;BME280;35210;41.606;-87.602;2023-02-11T07:58:51;100882.09;;;1.08;57.36
49342;BME280;35210;41.606;-87.602;2023-02-11T08:01:21;100879.50;;;1.08;57.44
49342;BME280;35210;41.606;-87.602;2023-02-11T08:03:52;100885.59;;;1.07;57.17
49342;BME280;35210;41.606;-87.602;2023-02-11T08:06:22;100877.00;;;1.02;57.48
49342;BME280;35210;41.606;-87.602;2023-02-11T08:08:52;100881.38;;;0.98;57.16
49342;BME280;35210;41.606;-87.602;2023-02-11T08:11:22;100880.50;;;0.99;57.23
49342;BME280;35210;41.606;-87.602;2023-02-11T08:13:53;100878.78;;;0.98;56.62
49342;BME280;35210;41.606;-87.602;2023-02-11T08:16:23;100877.03;;;0.99;57.12
49342;BME280;35210;41.606;-87.602;2023-02-11T08:18:52;100877.03;;;0.99;57.31
49342;BME280;35210;41.606;-87.602;2023-02-11T08:21:22;100877.97;;;0.95;57.26
49342;BME280;35210;41.606;-87.602;2023-02-11T08:23:54;100870.19;;;0.93;56.99
49342;BME280;35210;41.606;-87.602;2023-02-11T08:26:24;100871.03;;;0.94;57.25
49342;BME280;35210;41.606;-87.602;2023-02-11T08:28:55;100872.78;;;0.93;56.72
49342;BME280;35210;41.606;-87.602;2023-02-11T08:31:24;100863.28;;;0.91;57.42
49342;BME280;35210;41.606;-87.602;2023-02-11T08:33:54;100855.53;;;0.88;56.81
49342;BME280;35210;41.606;-87.602;2023-02-11T08:36:25;100858.16;;;0.85;56.73
49342;BME280;35210;41.606;-87.602;2023-02-11T08:38:57;100855.56;;;0.85;56.45
49342;BME280;35210;41.606;-87.602;2023-02-11T08:41:27;100851.31;;;0.81;56.51
49342;BME280;35210;41.606;-87.602;2023-02-11T08:43:55;100864.34;;;0.78;57.12
49342;BME280;35210;41.606;-87.602;2023-02-11T08:46:24;100866.19;;;0.73;57.46
49342;BME280;35210;41.606;-87.602;2023-02-11T08:48:53;100867.09;;;0.69;57.38
49342;BME280;35210;41.606;-87.602;2023-02-11T08:51:23;100863.63;;;0.70;57.54
49342;BME280;35210;41.606;-87.602;2023-02-11T08:53:53;100865.44;;;0.63;57.60
49342;BME280;35210;41.606;-87.602;2023-02-11T08:56:23;100871.56;;;0.59;58.42
49342;BME280;35210;41.606;-87.602;2023-02-11T08:58:52;100872.44;;;0.58;58.05
49342;BME280;35210;41.606;-87.602;2023-02-11T09:01:23;100868.94;;;0.62;58.25
49342;BME280;35210;41.606;-87.602;2023-02-11T09:03:53;100867.25;;;0.58;58.19
49342;BME280;35210;41.606;-87.602;2023-02-11T09:06:23;100868.16;;;0.55;58.67
49342;BME280;35210;41.606;-87.602;2023-02-11T09:08:53;100868.16;;;0.54;58.80
49342;BME280;35210;41.606;-87.602;2023-02-11T09:11:27;100861.28;;;0.51;59.15
49342;BME280;35210;41.606;-87.602;2023-02-11T09:13:55;100869.16;;;0.44;59.06
49342;BME280;35210;41.606;-87.602;2023-02-11T09:16:25;100857.91;;;0.43;58.77
49342;BME280;35210;41.606;-87.602;2023-02-11T09:18:55;100860.50;;;0.45;58.95
49342;BME280;35210;41.606;-87.602;2023-02-11T09:21:23;100857.88;;;0.46;59.25
49342;BME280;35210;41.606;-87.602;2023-02-11T09:23:51;100866.53;;;0.45;59.72
49342;BME280;35210;41.606;-87.602;2023-02-11T09:26:23;100867.38;;;0.47;59.70
49342;BME280;35210;41.606;-87.602;2023-02-11T09:28:53;100863.97;;;0.44;59.94
49342;BME280;35210;41.606;-87.602;2023-02-11T09:31:22;100863.09;;;0.43;60.12
49342;BME280;35210;41.606;-87.602;2023-02-11T09:33:54;100860.50;;;0.43;60.12
49342;BME280;35210;41.606;-87.602;2023-02-11T09:36:23;100861.44;;;0.38;60.25
49342;BME280;35210;41.606;-87.602;2023-02-11T09:38:53;100861.53;;;0.31;60.70
49342;BME280;35210;41.606;-87.602;2023-02-11T09:41:41;100862.44;;;0.27;60.61
49342;BME280;35210;41.606;-87.602;2023-02-11T09:44:19;100862.44;;;0.27;60.81
49342;BME280;35210;41.606;-87.602;2023-02-11T09:46:53;100865.00;;;0.29;61.33
49342;BME280;35210;41.606;-87.602;2023-02-11T09:49:25;100858.13;;;0.25;62.01
49342;BME280;35210;41.606;-87.602;2023-02-11T09:52:01;100863.34;;;0.25;62.10
49342;BME280;35210;41.606;-87.602;2023-02-11T09:54:36;100872.88;;;0.23;62.63
49342;BME280;35210;41.606;-87.602;2023-02-11T09:57:11;100873.75;;;0.22;62.13
49342;BME280;35210;41.606;-87.602;2023-02-11T09:59:41;100877.22;;;0.21;62.58
49342;BME280;35210;41.606;-87.602;2023-02-11T10:02:16;100873.75;;;0.22;62.36
49342;BME280;35210;41.606;-87.602;2023-02-11T10:05:01;100867.69;;;0.23;62.34
49342;BME280;35210;41.606;-87.602;2023-02-11T10:07:37;100870.31;;;0.20;62.73
49342;BME280;35210;41.606;-87.602;2023-02-11T10:10:15;100871.19;;;0.20;62.90
49342;BME280;35210;41.606;-87.602;2023-02-11T10:13:06;100867.72;;;0.20;63.07
49342;BME280;35210;41.606;-87.602;2023-02-11T10:15:43;100877.28;;;0.18;63.36
49342;BME280;35210;41.606;-87.602;2023-02-11T10:18:37;100877.28;;;0.18;63.50
49342;BME280;35210;41.606;-87.602;2023-02-11T10:21:17;100886.84;;;0.14;63.33
49342;BME280;35210;41.606;-87.602;2023-02-11T10:23:50;100883.38;;;0.14;63.33
49342;BME280;35210;41.606;-87.602;2023-02-11T10:26:19;100885.19;;;0.07;63.40
49342;BME280;35210;41.606;-87.602;2023-02-11T10:28:51;100889.50;;;0.08;63.52
49342;BME280;35210;41.606;-87.602;2023-02-11T10:31:22;100889.56;;;0.04;63.53
49342;BME280;35210;41.606;-87.602;2023-02-11T10:33:55;100887.81;;;0.04;63.92
49342;BME280;35210;41.606;-87.602;2023-02-11T10:36:28;100884.34;;;0.04;64.16
49342;BME280;35210;41.606;-87.602;2023-02-11T10:38:59;100882.63;;;0.04;64.40
49342;BME280;35210;41.606;-87.602;2023-02-11T10:41:30;100886.94;;;0.04;64.47
49342;BME280;35210;41.606;-87.602;2023-02-11T10:44:01;100886.94;;;0.04;64.20
49342;BME280;35210;41.606;-87.602;2023-02-11T10:46:35;100886.97;;;0.02;64.69
49342;BME280;35210;41.606;-87.602;2023-02-11T10:49:05;100892.16;;;0.02;64.71
49342;BME280;35210;41.606;-87.602;2023-02-11T10:51:33;100886.97;;;0.02;65.19
49342;BME280;35210;41.606;-87.602;2023-02-11T10:54:17;100887.03;;;-0.01;64.83
49342;BME280;35210;41.606;-87.602;2023-02-11T10:56:48;100891.31;;;0.02;64.90
49342;BME280;35210;41.606;-87.602;2023-02-11T10:59:25;100887.81;;;0.03;64.59
49342;BME280;35210;41.606;-87.602;2023-02-11T11:01:56;100891.38;;;-0.02;64.56
49342;BME280;35210;41.606;-87.602;2023-02-11T11:04:37;100887.94;;;-0.05;64.77
49342;BME280;35210;41.606;-87.602;2023-02-11T11:07:15;100892.28;;;-0.06;64.98
49342;BME280;35210;41.606;-87.602;2023-02-11T11:09:49;100901.81;;;-0.08;65.24
49342;BME280;35210;41.606;-87.602;2023-02-11T11:12:32;100893.16;;;-0.07;65.06
49342;BME280;35210;41.606;-87.602;2023-02-11T11:15:15;100893.94;;;0.00;65.08
49342;BME280;35210;41.606;-87.602;2023-02-11T11:17:45;100897.47;;;-0.06;65.22
49342;BME280;35210;41.606;-87.602;2023-02-11T11:20:17;100887.16;;;-0.12;65.61
49342;BME280;35210;41.606;-87.602;2023-02-11T11:22:49;100888.91;;;-0.15;66.18
49342;BME280;35210;41.606;-87.602;2023-02-11T11:25:23;100894.97;;;-0.15;65.78
49342;BME280;35210;41.606;-87.602;2023-02-11T11:27:54;100897.56;;;-0.15;66.41
49342;BME280;35210;41.606;-87.602;2023-02-11T11:30:30;100889.81;;;-0.18;66.06
49342;BME280;35210;41.606;-87.602;2023-02-11T11:32:59;100884.63;;;-0.18;66.22
49342;BME280;35210;41.606;-87.602;2023-02-11T11:35:29;100887.25;;;-0.21;66.58
49342;BME280;35210;41.606;-87.602;2023-02-11T11:38:01;100887.22;;;-0.19;66.86
49342;BME280;35210;41.606;-87.602;2023-02-11T11:40:31;100888.09;;;-0.22;66.96
49342;BME280;35210;41.606;-87.602;2023-02-11T11:43:06;100895.88;;;-0.20;66.72
49342;BME280;35210;41.606;-87.602;2023-02-11T11:45:52;100886.38;;;-0.21;66.55
49342;BME280;35210;41.606;-87.602;2023-02-11T11:48:25;100889.84;;;-0.24;66.40
49342;BME280;35210;41.606;-87.602;2023-02-11T11:50:57;100895.97;;;-0.29;66.57
49342;BME280;35210;41.606;-87.602;2023-02-11T11:53:31;100883.94;;;-0.37;66.85
49342;BME280;35210;41.606;-87.602;2023-02-11T11:56:04;100877.91;;;-0.42;67.07
49342;BME280;35210;41.606;-87.602;2023-02-11T11:58:33;100892.66;;;-0.45;67.79
49342;BME280;35210;41.606;-87.602;2023-02-11T12:01:14;100893.53;;;-0.48;67.17
49342;BME280;35210;41.606;-87.602;2023-02-11T12:04:16;100886.66;;;-0.52;67.58
49342;BME280;35210;41.606;-87.602;2023-02-11T12:07:01;100899.66;;;-0.56;67.89
49342;BME280;35210;41.606;-87.602;2023-02-11T12:09:40;100902.25;;;-0.56;68.24
49342;BME280;35210;41.606;-87.602;2023-02-11T12:12:23;100905.69;;;-0.54;68.53
49342;BME280;35210;41.606;-87.602;2023-02-11T12:15:07;100903.97;;;-0.52;68.34
49342;BME280;35210;41.606;-87.602;2023-02-11T12:17:51;100903.97;;;-0.52;68.31
49342;BME280;35210;41.606;-87.602;2023-02-11T12:20:30;100905.69;;;-0.51;68.69
49342;BME280;35210;41.606;-87.602;2023-02-11T12:23:18;100900.50;;;-0.51;68.61
49342;BME280;35210;41.606;-87.602;2023-02-11T12:25:56;100902.22;;;-0.50;68.74
49342;BME280;35210;41.606;-87.602;2023-02-11T12:28:37;100902.22;;;-0.50;68.73
49342;BME280;35210;41.606;-87.602;2023-02-11T12:31:17;100903.06;;;-0.50;68.65
49342;BME280;35210;41.606;-87.602;2023-02-11T12:36:52;100905.69;;;-0.51;68.58
49342;BME280;35210;41.606;-87.602;2023-02-11T12:39:37;100909.16;;;-0.52;68.70
49342;BME280;35210;41.606;-87.602;2023-02-11T12:45:44;100912.59;;;-0.50;68.33
49342;BME280;35210;41.606;-87.602;2023-02-11T12:48:31;100914.31;;;-0.49;68.68
49342;BME280;35210;41.606;-87.602;2023-02-11T12:51:12;100918.63;;;-0.50;68.93
49342;BME280;35210;41.606;-87.602;2023-02-11T12:53:57;100916.91;;;-0.51;69.13
49342;BME280;35210;41.606;-87.602;2023-02-11T12:56:35;100912.59;;;-0.50;68.92
49342;BME280;35210;41.606;-87.602;2023-02-11T12:59:07;100911.75;;;-0.52;68.97
49342;BME280;35210;41.606;-87.602;2023-02-11T13:01:41;100909.19;;;-0.58;68.75
49342;BME280;35210;41.606;-87.602;2023-02-11T13:04:17;100910.94;;;-0.60;68.85
49342;BME280;35210;41.606;-87.602;2023-02-11T13:06:54;100912.69;;;-0.62;68.92
49342;BME280;35210;41.606;-87.602;2023-02-11T13:09:28;100910.09;;;-0.64;69.23
49342;BME280;35210;41.606;-87.602;2023-02-11T13:11:59;100903.16;;;-0.59;69.12
49342;BME280;35210;41.606;-87.602;2023-02-11T13:14:55;100917.00;;;-0.61;69.30